Time;durP1;ratioP1;P1;durP2;ratioP2;P2;SDS_P1;SDS_P2;PMS_P1;PMS_P2;Temp;Humidity;BMP_temperature;BMP_pressure;BME280_temperature;BME280_humidity;BME280_pressure;Samples;Min_cycle;Max_cycle;Signal;HPM_P1;HPM_P2
2022/01/07 00:00:52;;;;;;;16.50;12.10;;;;;;;;;;5051075;28;20492;-78
2022/01/07 00:03:19;;;;;;;15.13;11.10;;;;;;;;;;5050414;28;21067;-78
2022/01/07 00:05:48;;;;;;;18.03;12.53;;;;;;;;;;5050318;28;20482;-78
2022/01/07 00:08:15;;;;;;;14.20;11.90;;;;;;;;;;5050577;28;20507;-79
2022/01/07 00:10:42;;;;;;;11.90;9.90;;;;;;;;;;5050691;28;20995;-79
2022/01/07 00:13:09;;;;;;;11.43;10.20;;;;;;;;;;5050122;28;20960;-77
2022/01/07 00:15:36;;;;;;;11.33;9.87;;;;;;;;;;5042399;28;20459;-79
2022/01/07 00:18:03;;;;;;;12.43;9.07;;;;;;;;;;5049614;28;21057;-78
2022/01/07 00:20:30;;;;;;;12.00;10.13;;;;;;;;;;5034788;28;20912;-78
2022/01/07 00:22:59;;;;;;;15.30;10.80;;;;;;;;;;5030106;28;20442;-78
2022/01/07 00:25:26;;;;;;;11.43;10.23;;;;;;;;;;5031270;28;20508;-78
2022/01/07 00:27:53;;;;;;;14.63;9.10;;;;;;;;;;5030604;28;20487;-77
2022/01/07 00:30:22;;;;;;;14.43;11.10;;;;;;;;;;5030429;28;20442;-79
2022/01/07 00:32:49;;;;;;;11.73;10.50;;;;;;;;;;5030090;28;20812;-78
2022/01/07 00:35:17;;;;;;;12.80;10.87;;;;;;;;;;5030248;28;20497;-78
2022/01/07 00:37:45;;;;;;;13.70;9.70;;;;;;;;;;5030130;28;20510;-79
2022/01/07 00:40:15;;;;;;;16.40;10.70;;;;;;;;;;5029901;28;20486;-79
2022/01/07 00:42:42;;;;;;;10.87;9.60;;;;;;;;;;5029754;28;20462;-79
2022/01/07 00:45:09;;;;;;;11.80;10.70;;;;;;;;;;5030209;28;20517;-78
2022/01/07 00:47:36;;;;;;;13.47;10.30;;;;;;;;;;5029563;28;20514;-79
2022/01/07 00:50:04;;;;;;;10.83;9.43;;;;;;;;;;5029863;28;20447;-78
2022/01/07 00:52:32;;;;;;;12.10;10.10;;;;;;;;;;5029684;28;20442;-79
2022/01/07 00:55:00;;;;;;;16.60;11.73;;;;;;;;;;5029827;28;20477;-79
2022/01/07 00:57:28;;;;;;;14.67;11.13;;;;;;;;;;5029716;28;20470;-78
2022/01/07 00:59:55;;;;;;;11.30;10.10;;;;;;;;;;5040242;28;20942;-79
2022/01/07 01:02:22;;;;;;;15.57;10.47;;;;;;;;;;5050025;28;20569;-77
2022/01/07 01:04:49;;;;;;;11.93;10.70;;;;;;;;;;5050066;28;20446;-78
2022/01/07 01:07:17;;;;;;;12.20;10.67;;;;;;;;;;5050188;28;20485;-78
2022/01/07 01:09:44;;;;;;;13.43;10.23;;;;;;;;;;5050542;28;20449;-77
2022/01/07 01:12:12;;;;;;;10.53;9.53;;;;;;;;;;5050273;28;20450;-80
2022/01/07 01:14:40;;;;;;;11.90;10.20;;;;;;;;;;5050682;28;20453;-79
2022/01/07 01:17:08;;;;;;;14.00;10.13;;;;;;;;;;5054486;28;20473;-78
2022/01/07 01:19:35;;;;;;;15.40;10.33;;;;;;;;;;5054739;28;20457;-77
2022/01/07 01:22:02;;;;;;;11.10;8.93;;;;;;;;;;5054943;28;20453;-79
2022/01/07 01:24:29;;;;;;;17.73;9.83;;;;;;;;;;5058695;28;20445;-78
2022/01/07 01:26:56;;;;;;;16.83;11.00;;;;;;;;;;5061478;28;20917;-77
2022/01/07 01:29:23;;;;;;;13.83;10.90;;;;;;;;;;5058910;28;20744;-78
2022/01/07 01:31:52;;;;;;;10.90;9.80;;;;;;;;;;5055363;28;20445;-78
2022/01/07 01:34:19;;;;;;;11.10;10.00;;;;;;;;;;5053306;28;20465;-79
2022/01/07 01:36:46;;;;;;;11.87;9.13;;;;;;;;;;5054238;28;20470;-77
2022/01/07 01:39:14;;;;;;;15.03;11.17;;;;;;;;;;5054816;28;20442;-77
2022/01/07 01:41:42;;;;;;;12.17;10.73;;;;;;;;;;5054136;28;20969;-79
2022/01/07 01:44:09;;;;;;;12.33;9.83;;;;;;;;;;5054767;28;20437;-77
2022/01/07 01:46:36;;;;;;;13.57;10.70;;;;;;;;;;5054565;28;21005;-78
2022/01/07 01:49:05;;;;;;;12.70;11.37;;;;;;;;;;5054054;28;20438;-77
2022/01/07 01:51:32;;;;;;;15.97;11.10;;;;;;;;;;5054945;28;20532;-77
2022/01/07 01:53:59;;;;;;;13.50;10.83;;;;;;;;;;5052083;28;20448;-76
2022/01/07 01:56:27;;;;;;;15.53;11.27;;;;;;;;;;5055075;28;20466;-77
2022/01/07 01:58:54;;;;;;;13.73;11.73;;;;;;;;;;5044637;28;20435;-77
2022/01/07 02:01:21;;;;;;;12.33;10.83;;;;;;;;;;5034086;28;20449;-77
2022/01/07 02:03:48;;;;;;;12.90;11.10;;;;;;;;;;5049563;28;20511;-78
2022/01/07 02:06:17;;;;;;;14.00;10.00;;;;;;;;;;5053643;28;20466;-77
2022/01/07 02:08:45;;;;;;;11.30;10.10;;;;;;;;;;5053694;28;20437;-78
2022/01/07 02:11:12;;;;;;;12.67;10.60;;;;;;;;;;5053710;28;20444;-77
2022/01/07 02:13:39;;;;;;;12.50;10.73;;;;;;;;;;5053482;28;20442;-77
2022/01/07 02:16:07;;;;;;;16.23;11.77;;;;;;;;;;5055144;28;20521;-77
2022/01/07 02:18:34;;;;;;;12.40;10.83;;;;;;;;;;5055372;28;20949;-77
2022/01/07 02:21:03;;;;;;;14.17;11.20;;;;;;;;;;5055272;28;20448;-77
2022/01/07 02:23:32;;;;;;;14.27;11.70;;;;;;;;;;5054762;28;20446;-77
2022/01/07 02:25:59;;;;;;;13.20;10.60;;;;;;;;;;5056019;28;20945;-78
2022/01/07 02:28:27;;;;;;;13.60;10.97;;;;;;;;;;5054694;28;20493;-76
2022/01/07 02:30:54;;;;;;;13.07;9.77;;;;;;;;;;5055418;28;20461;-77
2022/01/07 02:33:21;;;;;;;17.20;10.67;;;;;;;;;;5052819;28;20430;-77
2022/01/07 02:35:48;;;;;;;13.83;11.37;;;;;;;;;;5053386;28;20449;-78
2022/01/07 02:38:17;;;;;;;11.67;9.60;;;;;;;;;;5053806;28;20450;-78
2022/01/07 02:40:45;;;;;;;10.30;9.40;;;;;;;;;;5054242;28;20481;-77
2022/01/07 02:43:12;;;;;;;11.30;9.50;;;;;;;;;;5052620;28;20472;-78
2022/01/07 02:45:39;;;;;;;16.63;11.27;;;;;;;;;;5054283;28;20454;-78
2022/01/07 02:48:06;;;;;;;12.50;10.40;;;;;;;;;;5052882;28;20493;-77
2022/01/07 02:50:35;;;;;;;11.70;9.70;;;;;;;;;;5053223;28;20817;-77
2022/01/07 02:53:02;;;;;;;13.90;10.23;;;;;;;;;;5052612;28;20516;-77
2022/01/07 02:55:30;;;;;;;11.47;9.67;;;;;;;;;;5052109;28;20941;-77
2022/01/07 02:57:58;;;;;;;13.60;10.80;;;;;;;;;;5052843;28;20462;-79
2022/01/07 03:00:25;;;;;;;12.43;9.20;;;;;;;;;;5052235;28;20454;-77
2022/01/07 03:02:52;;;;;;;13.60;10.63;;;;;;;;;;5044545;28;20442;-77
2022/01/07 03:05:20;;;;;;;13.33;9.90;;;;;;;;;;5032027;28;20864;-76
2022/01/07 03:07:48;;;;;;;12.60;10.07;;;;;;;;;;5031719;28;20487;-78
2022/01/07 03:10:16;;;;;;;11.00;9.73;;;;;;;;;;5033320;28;20505;-78
2022/01/07 03:12:44;;;;;;;10.90;9.90;;;;;;;;;;5033671;28;20466;-78
2022/01/07 03:15:12;;;;;;;14.57;9.87;;;;;;;;;;5032637;28;20439;-77
2022/01/07 03:17:40;;;;;;;12.23;9.87;;;;;;;;;;5031806;28;20466;-76
2022/01/07 03:20:07;;;;;;;11.90;9.53;;;;;;;;;;5031828;28;20534;-77
2022/01/07 03:22:34;;;;;;;12.90;11.60;;;;;;;;;;5031559;28;20442;-77
2022/01/07 03:25:01;;;;;;;17.90;10.03;;;;;;;;;;5040336;28;20505;-77
2022/01/07 03:27:28;;;;;;;13.03;10.10;;;;;;;;;;5054740;28;20487;-77
2022/01/07 03:29:57;;;;;;;14.77;10.10;;;;;;;;;;5056921;28;20427;-76
2022/01/07 03:32:24;;;;;;;17.17;10.70;;;;;;;;;;5056824;28;20489;-76
2022/01/07 03:34:51;;;;;;;12.20;9.43;;;;;;;;;;5056826;28;20465;-76
2022/01/07 03:37:18;;;;;;;10.53;9.20;;;;;;;;;;5056341;28;20462;-76
2022/01/07 03:39:45;;;;;;;10.73;8.67;;;;;;;;;;5055648;28;20435;-75
2022/01/07 03:42:13;;;;;;;11.33;9.70;;;;;;;;;;5056551;28;20474;-76
2022/01/07 03:44:40;;;;;;;10.63;9.50;;;;;;;;;;5056584;28;20427;-75
2022/01/07 03:47:08;;;;;;;10.57;9.17;;;;;;;;;;5056133;28;20479;-76
2022/01/07 03:49:35;;;;;;;12.70;9.00;;;;;;;;;;5056313;28;20428;-76
2022/01/07 03:52:02;;;;;;;17.03;9.63;;;;;;;;;;5056358;28;20438;-76
2022/01/07 03:54:29;;;;;;;10.97;8.67;;;;;;;;;;5056017;28;20431;-76
2022/01/07 03:56:56;;;;;;;12.20;8.93;;;;;;;;;;5056355;28;20451;-76
2022/01/07 03:59:23;;;;;;;10.03;8.53;;;;;;;;;;5055939;28;20435;-77
2022/01/07 04:01:50;;;;;;;9.23;7.63;;;;;;;;;;5056024;28;20449;-76
2022/01/07 04:04:19;;;;;;;10.00;8.43;;;;;;;;;;5068297;28;20471;-76
2022/01/07 04:06:46;;;;;;;9.10;8.07;;;;;;;;;;5074751;28;20450;-76
2022/01/07 04:09:13;;;;;;;11.60;7.57;;;;;;;;;;5040491;28;20446;-77
2022/01/07 04:11:40;;;;;;;9.77;7.90;;;;;;;;;;5033232;28;20810;-77
2022/01/07 04:14:07;;;;;;;10.40;7.60;;;;;;;;;;5030588;28;20493;-77
2022/01/07 04:16:34;;;;;;;10.03;7.53;;;;;;;;;;5030389;28;20466;-77
2022/01/07 04:19:01;;;;;;;13.00;8.07;;;;;;;;;;5030679;28;20446;-76
2022/01/07 04:21:29;;;;;;;10.07;7.37;;;;;;;;;;5030652;28;20962;-78
2022/01/07 04:23:56;;;;;;;9.20;8.27;;;;;;;;;;5029851;28;20442;-77
2022/01/07 04:26:23;;;;;;;8.93;7.83;;;;;;;;;;5030250;28;20534;-77
2022/01/07 04:28:50;;;;;;;10.67;7.47;;;;;;;;;;5030203;28;20483;-78
2022/01/07 04:31:17;;;;;;;9.27;7.90;;;;;;;;;;5030290;28;20541;-77
2022/01/07 04:33:44;;;;;;;8.87;7.97;;;;;;;;;;5029807;28;20938;-77
2022/01/07 04:36:11;;;;;;;9.40;7.70;;;;;;;;;;5030117;28;20470;-77
2022/01/07 04:38:39;;;;;;;10.93;7.20;;;;;;;;;;5036007;28;20473;-77
2022/01/07 04:41:06;;;;;;;9.57;7.83;;;;;;;;;;5050260;28;20454;-77
2022/01/07 04:43:33;;;;;;;8.87;7.30;;;;;;;;;;5034351;28;20450;-77
2022/01/07 04:46:00;;;;;;;11.50;8.00;;;;;;;;;;5030079;28;20869;-77
2022/01/07 04:48:27;;;;;;;8.17;7.10;;;;;;;;;;5030559;28;20486;-76
2022/01/07 04:50:55;;;;;;;8.60;7.77;;;;;;;;;;5029938;28;20459;-77
2022/01/07 04:53:22;;;;;;;8.40;7.53;;;;;;;;;;5029916;28;20447;-76
2022/01/07 04:55:50;;;;;;;9.47;7.57;;;;;;;;;;5030163;28;20450;-77
2022/01/07 04:58:17;;;;;;;9.63;7.93;;;;;;;;;;5030927;28;21029;-77
2022/01/07 05:00:45;;;;;;;10.87;8.60;;;;;;;;;;5030610;28;20447;-78
2022/01/07 05:03:12;;;;;;;10.30;7.50;;;;;;;;;;5039630;28;20446;-77
2022/01/07 05:05:39;;;;;;;8.77;7.73;;;;;;;;;;5050590;28;20723;-77
2022/01/07 05:08:06;;;;;;;8.50;7.47;;;;;;;;;;5052724;28;20482;-77
2022/01/07 05:10:34;;;;;;;8.73;7.83;;;;;;;;;;5051461;28;20461;-77
2022/01/07 05:13:02;;;;;;;10.00;7.80;;;;;;;;;;5050761;28;20453;-76
2022/01/07 05:15:30;;;;;;;9.53;8.63;;;;;;;;;;5066238;28;20446;-77
2022/01/07 05:17:57;;;;;;;9.87;8.30;;;;;;;;;;5065191;28;20466;-77
2022/01/07 05:20:24;;;;;;;10.27;9.00;;;;;;;;;;5051412;28;20450;-77
2022/01/07 05:22:51;;;;;;;11.93;9.43;;;;;;;;;;5050504;28;20434;-77
2022/01/07 05:25:18;;;;;;;11.33;8.97;;;;;;;;;;5053857;28;20437;-77
2022/01/07 05:27:45;;;;;;;11.33;9.13;;;;;;;;;;5049800;28;20489;-77
2022/01/07 05:30:14;;;;;;;11.50;8.23;;;;;;;;;;5050116;28;20791;-78
2022/01/07 05:32:41;;;;;;;13.10;9.27;;;;;;;;;;5049820;28;20438;-77
2022/01/07 05:35:09;;;;;;;15.77;9.57;;;;;;;;;;5050048;28;20438;-78
2022/01/07 05:37:36;;;;;;;10.80;8.57;;;;;;;;;;5050440;28;20531;-76
2022/01/07 05:40:04;;;;;;;10.67;8.30;;;;;;;;;;5049769;28;20446;-76
2022/01/07 05:42:31;;;;;;;12.73;8.97;;;;;;;;;;5050491;28;20454;-77
2022/01/07 05:44:59;;;;;;;10.67;8.97;;;;;;;;;;5050533;28;20438;-77
2022/01/07 05:47:27;;;;;;;11.73;9.43;;;;;;;;;;5051453;28;20485;-77
2022/01/07 05:49:54;;;;;;;14.00;8.67;;;;;;;;;;5050681;28;20852;-77
2022/01/07 05:52:21;;;;;;;11.93;9.30;;;;;;;;;;5049760;28;20446;-79
2022/01/07 05:54:48;;;;;;;10.97;9.23;;;;;;;;;;5048872;28;20476;-78
2022/01/07 05:57:15;;;;;;;11.57;8.90;;;;;;;;;;5049779;28;20466;-77
2022/01/07 05:59:42;;;;;;;11.00;8.87;;;;;;;;;;5050379;28;20855;-77
2022/01/07 06:02:09;;;;;;;12.30;8.70;;;;;;;;;;5048980;28;20734;-79
2022/01/07 06:04:38;;;;;;;14.10;9.40;;;;;;;;;;5032837;28;20454;-79
2022/01/07 06:07:05;;;;;;;11.63;8.70;;;;;;;;;;5033093;28;20467;-78
2022/01/07 06:09:33;;;;;;;11.67;9.60;;;;;;;;;;5033180;28;20489;-78
2022/01/07 06:12:01;;;;;;;13.13;9.93;;;;;;;;;;5033377;28;20842;-77
2022/01/07 06:14:28;;;;;;;11.63;9.30;;;;;;;;;;5033134;28;20866;-78
2022/01/07 06:16:56;;;;;;;11.97;10.17;;;;;;;;;;5033742;28;20508;-77
2022/01/07 06:19:23;;;;;;;11.30;9.60;;;;;;;;;;5033602;28;20447;-77
2022/01/07 06:21:51;;;;;;;11.70;9.10;;;;;;;;;;5032413;28;20457;-79
2022/01/07 06:24:18;;;;;;;13.33;9.90;;;;;;;;;;5032874;28;20880;-78
2022/01/07 06:26:45;;;;;;;16.27;11.57;;;;;;;;;;5032639;28;21144;-77
2022/01/07 06:29:12;;;;;;;13.50;9.27;;;;;;;;;;5033034;28;20487;-77
2022/01/07 06:31:39;;;;;;;14.30;11.30;;;;;;;;;;5033099;28;20454;-77
2022/01/07 06:34:06;;;;;;;16.27;10.20;;;;;;;;;;5033267;28;20439;-78
2022/01/07 06:36:33;;;;;;;16.87;10.37;;;;;;;;;;5033322;28;20474;-76
2022/01/07 06:39:02;;;;;;;13.50;9.77;;;;;;;;;;5033018;28;20450;-77
2022/01/07 06:41:29;;;;;;;13.57;10.50;;;;;;;;;;5033592;28;20458;-77
2022/01/07 06:43:56;;;;;;;16.70;10.73;;;;;;;;;;5033604;28;20451;-79
2022/01/07 06:46:23;;;;;;;16.13;10.87;;;;;;;;;;5032773;28;20515;-78
2022/01/07 06:48:50;;;;;;;13.60;10.87;;;;;;;;;;5032301;28;20485;-77
2022/01/07 06:51:17;;;;;;;13.40;10.20;;;;;;;;;;5035623;28;20454;-77
2022/01/07 06:53:44;;;;;;;11.27;10.13;;;;;;;;;;5049916;28;20462;-77
2022/01/07 06:56:12;;;;;;;11.73;9.40;;;;;;;;;;5053861;28;20504;-78
2022/01/07 06:58:39;;;;;;;14.47;10.00;;;;;;;;;;5052381;28;20442;-77
2022/01/07 07:01:07;;;;;;;13.93;9.60;;;;;;;;;;5032297;28;20528;-77
2022/01/07 07:03:34;;;;;;;13.27;9.77;;;;;;;;;;5043610;28;20506;-77
2022/01/07 07:06:01;;;;;;;15.83;10.63;;;;;;;;;;5052555;28;20829;-77
2022/01/07 07:08:29;;;;;;;12.87;9.90;;;;;;;;;;5036250;28;21038;-77
2022/01/07 07:10:56;;;;;;;15.70;11.50;;;;;;;;;;5032039;28;20447;-77
2022/01/07 07:13:24;;;;;;;15.30;10.47;;;;;;;;;;5032072;28;20439;-77
2022/01/07 07:15:51;;;;;;;14.77;10.90;;;;;;;;;;5034571;28;20447;-77
2022/01/07 07:18:19;;;;;;;10.70;9.57;;;;;;;;;;5033196;28;20451;-77
2022/01/07 07:20:46;;;;;;;15.00;10.80;;;;;;;;;;5032363;28;20501;-79
2022/01/07 07:23:13;;;;;;;14.27;10.40;;;;;;;;;;5031904;28;20463;-77
2022/01/07 07:25:40;;;;;;;15.70;10.77;;;;;;;;;;5033081;28;20758;-79
2022/01/07 07:28:07;;;;;;;11.80;9.63;;;;;;;;;;5033946;28;20479;-77
2022/01/07 07:30:38;;;;;;;11.13;9.23;;;;;;;;;;5033152;28;20475;-78
2022/01/07 07:33:29;;;;;;;14.23;10.70;;;;;;;;;;5031242;28;20482;-78
2022/01/07 07:38:42;;;;;;;12.93;10.30;;;;;;;;;;5031373;28;20911;-77
2022/01/07 07:41:10;;;;;;;11.77;9.73;;;;;;;;;;5030928;28;20863;-79
2022/01/07 07:43:37;;;;;;;13.77;10.73;;;;;;;;;;5031073;28;20450;-78
2022/01/07 07:46:06;;;;;;;14.00;10.87;;;;;;;;;;5031049;28;20476;-77
2022/01/07 07:48:33;;;;;;;26.13;15.90;;;;;;;;;;5034731;28;20942;-77
2022/01/07 07:51:00;;;;;;;13.70;9.73;;;;;;;;;;5051239;28;20844;-77
2022/01/07 07:53:27;;;;;;;10.60;8.37;;;;;;;;;;5045654;28;20493;-78
2022/01/07 07:55:54;;;;;;;16.70;10.63;;;;;;;;;;5031330;28;20459;-77
2022/01/07 07:58:22;;;;;;;10.50;9.20;;;;;;;;;;5032449;28;21037;-79
2022/01/07 08:00:49;;;;;;;11.17;9.47;;;;;;;;;;5031936;28;20455;-78
2022/01/07 08:03:18;;;;;;;11.90;10.00;;;;;;;;;;5041761;28;20442;-77
2022/01/07 08:05:45;;;;;;;12.10;9.90;;;;;;;;;;5053445;28;20500;-77
2022/01/07 08:08:12;;;;;;;13.80;10.13;;;;;;;;;;5051281;28;20446;-77
2022/01/07 08:10:45;;;;;;;11.23;9.30;;;;;;;;;;5051578;28;20437;-76
2022/01/07 08:13:28;;;;;;;12.67;10.63;;;;;;;;;;5050689;28;20450;-77
2022/01/07 08:16:01;;;;;;;12.80;10.47;;;;;;;;;;5051842;28;20543;-77
2022/01/07 08:18:30;;;;;;;11.30;9.77;;;;;;;;;;5047994;28;20734;-78
2022/01/07 08:20:58;;;;;;;12.20;10.00;;;;;;;;;;5049592;28;20438;-77
2022/01/07 08:23:25;;;;;;;9.80;8.80;;;;;;;;;;5044046;28;20447;-79
2022/01/07 08:25:52;;;;;;;11.27;9.73;;;;;;;;;;5029956;28;20443;-78
2022/01/07 08:28:22;;;;;;;13.13;9.40;;;;;;;;;;5032192;28;20458;-77
2022/01/07 08:31:23;;;;;;;12.00;9.13;;;;;;;;;;5031471;28;20462;-79
2022/01/07 08:36:36;;;;;;;16.83;13.37;;;;;;;;;;5031071;28;20441;-78
2022/01/07 08:39:06;;;;;;;15.97;11.50;;;;;;;;;;5030679;28;20864;-78
2022/01/07 08:41:33;;;;;;;18.27;10.47;;;;;;;;;;5030938;28;20451;-79
2022/01/07 08:44:01;;;;;;;12.90;9.20;;;;;;;;;;5030829;28;20451;-77
2022/01/07 08:46:29;;;;;;;12.10;9.33;;;;;;;;;;5038013;28;20490;-77
2022/01/07 08:48:58;;;;;;;11.83;9.20;;;;;;;;;;5032571;28;20486;-79
2022/01/07 08:51:26;;;;;;;10.73;9.10;;;;;;;;;;5030081;28;20439;-80
2022/01/07 08:53:53;;;;;;;10.60;8.30;;;;;;;;;;5031252;28;20450;-79
2022/01/07 08:56:23;;;;;;;10.83;9.23;;;;;;;;;;5042119;28;20480;-79
2022/01/07 08:58:51;;;;;;;13.00;9.33;;;;;;;;;;5049931;28;20450;-79
2022/01/07 09:01:18;;;;;;;14.30;8.47;;;;;;;;;;5056855;28;20909;-79
2022/01/07 09:03:45;;;;;;;11.00;8.60;;;;;;;;;;5054449;28;20453;-78
2022/01/07 09:06:13;;;;;;;14.80;9.30;;;;;;;;;;5050959;28;20470;-80
2022/01/07 09:08:40;;;;;;;11.63;9.03;;;;;;;;;;5050727;28;20535;-78
2022/01/07 09:11:07;;;;;;;9.73;7.77;;;;;;;;;;5050544;28;20505;-79
2022/01/07 09:13:34;;;;;;;13.27;9.17;;;;;;;;;;5051555;28;20515;-78
2022/01/07 09:16:01;;;;;;;12.60;8.40;;;;;;;;;;5052476;28;20999;-80
2022/01/07 09:18:31;;;;;;;9.73;8.20;;;;;;;;;;5050855;28;20454;-80
2022/01/07 09:20:58;;;;;;;9.30;8.13;;;;;;;;;;5053511;28;20466;-79
2022/01/07 09:23:27;;;;;;;11.43;8.37;;;;;;;;;;5051804;28;20805;-78
2022/01/07 09:25:54;;;;;;;12.80;8.93;;;;;;;;;;5052068;28;20450;-79
2022/01/07 09:28:21;;;;;;;10.83;8.10;;;;;;;;;;5051152;28;20458;-78
2022/01/07 09:30:48;;;;;;;13.33;8.40;;;;;;;;;;5044250;28;21028;-79
2022/01/07 09:33:15;;;;;;;8.80;7.80;;;;;;;;;;5052910;28;20525;-79
2022/01/07 09:35:44;;;;;;;9.43;8.33;;;;;;;;;;5052600;28;20501;-80
2022/01/07 09:38:11;;;;;;;9.40;8.03;;;;;;;;;;5062030;28;20496;-78
2022/01/07 09:40:39;;;;;;;11.47;7.87;;;;;;;;;;5066094;28;20450;-78
2022/01/07 09:43:08;;;;;;;10.70;9.60;;;;;;;;;;5071384;28;20453;-81
2022/01/07 09:45:36;;;;;;;10.87;9.23;;;;;;;;;;5076359;28;20442;-79
2022/01/07 09:48:03;;;;;;;11.80;8.77;;;;;;;;;;5065042;28;20481;-75
2022/01/07 09:50:32;;;;;;;8.37;7.57;;;;;;;;;;5069605;28;20486;-75
2022/01/07 09:53:04;;;;;;;10.67;8.03;;;;;;;;;;5069277;28;20472;-76
2022/01/07 09:55:31;;;;;;;9.60;8.17;;;;;;;;;;5070515;28;20481;-74
2022/01/07 09:57:59;;;;;;;8.47;7.43;;;;;;;;;;5057476;28;20862;-78
2022/01/07 10:00:32;;;;;;;8.37;7.03;;;;;;;;;;5059567;28;20442;-79
2022/01/07 10:03:00;;;;;;;8.30;7.50;;;;;;;;;;5060985;28;20959;-78
2022/01/07 10:05:27;;;;;;;8.20;7.40;;;;;;;;;;5061123;28;20474;-79
2022/01/07 10:07:54;;;;;;;8.30;7.43;;;;;;;;;;5059190;28;20458;-78
2022/01/07 10:10:21;;;;;;;9.77;8.77;;;;;;;;;;5059779;28;20512;-78
2022/01/07 10:12:53;;;;;;;9.67;7.97;;;;;;;;;;5057710;28;20442;-79
2022/01/07 10:15:22;;;;;;;8.70;7.80;;;;;;;;;;5059252;28;20438;-78
2022/01/07 10:17:56;;;;;;;9.57;8.20;;;;;;;;;;5060241;28;20469;-77
2022/01/07 10:20:24;;;;;;;7.93;6.90;;;;;;;;;;5057888;28;20447;-77
2022/01/07 10:22:53;;;;;;;7.97;7.17;;;;;;;;;;5058016;28;20996;-79
2022/01/07 10:25:21;;;;;;;11.23;8.53;;;;;;;;;;5056792;28;20814;-78
2022/01/07 10:27:48;;;;;;;9.93;8.47;;;;;;;;;;5057540;28;20462;-78
2022/01/07 10:30:18;;;;;;;10.30;8.27;;;;;;;;;;5058448;28;20470;-78
2022/01/07 10:32:47;;;;;;;9.67;8.30;;;;;;;;;;5055106;28;20443;-77
2022/01/07 10:35:15;;;;;;;10.27;8.13;;;;;;;;;;5054573;28;20473;-78
2022/01/07 10:38:03;;;;;;;9.27;8.13;;;;;;;;;;5055112;28;20470;-78
2022/01/07 10:40:32;;;;;;;10.10;8.57;;;;;;;;;;5058482;28;20445;-79
2022/01/07 10:43:09;;;;;;;10.63;8.73;;;;;;;;;;5058796;28;20987;-77
2022/01/07 10:45:36;;;;;;;12.17;9.20;;;;;;;;;;5057891;28;20500;-78
2022/01/07 10:48:06;;;;;;;11.30;8.83;;;;;;;;;;5054970;28;20524;-78
2022/01/07 10:50:37;;;;;;;11.60;9.23;;;;;;;;;;5038502;28;20478;-78
2022/01/07 10:53:20;;;;;;;14.00;8.20;;;;;;;;;;5033797;28;20440;-77
2022/01/07 10:56:01;;;;;;;10.13;8.03;;;;;;;;;;5051327;28;20496;-78
2022/01/07 10:58:28;;;;;;;8.60;7.70;;;;;;;;;;5053411;28;20441;-79
2022/01/07 11:00:56;;;;;;;9.57;8.57;;;;;;;;;;5055416;28;20448;-78
2022/01/07 11:03:24;;;;;;;12.10;10.13;;;;;;;;;;5057383;28;20442;-76
2022/01/07 11:05:51;;;;;;;12.37;9.87;;;;;;;;;;5053774;28;20460;-78
2022/01/07 11:08:18;;;;;;;10.57;9.47;;;;;;;;;;5046411;28;20937;-78
2022/01/07 11:10:46;;;;;;;11.73;9.43;;;;;;;;;;5053262;28;20465;-79
2022/01/07 11:13:13;;;;;;;11.43;10.10;;;;;;;;;;5049494;28;20449;-78
2022/01/07 11:15:40;;;;;;;12.13;9.60;;;;;;;;;;5054217;28;20446;-79
2022/01/07 11:18:07;;;;;;;9.70;8.70;;;;;;;;;;5053699;28;20473;-78
2022/01/07 11:20:35;;;;;;;17.90;9.60;;;;;;;;;;5053804;28;20446;-78
2022/01/07 11:23:02;;;;;;;30.30;18.50;;;;;;;;;;5055480;28;20458;-78
2022/01/07 11:25:33;;;;;;;15.90;11.20;;;;;;;;;;5054195;28;20458;-76
2022/01/07 11:28:01;;;;;;;12.30;9.77;;;;;;;;;;5047171;28;20458;-78
2022/01/07 11:30:32;;;;;;;14.70;11.30;;;;;;;;;;5046419;28;20847;-77
2022/01/07 11:32:59;;;;;;;12.37;9.70;;;;;;;;;;5058008;28;20443;-78
2022/01/07 11:35:45;;;;;;;11.17;9.30;;;;;;;;;;5057114;28;20437;-78
2022/01/07 11:38:39;;;;;;;14.13;10.20;;;;;;;;;;5053755;28;20437;-77
2022/01/07 11:41:37;;;;;;;13.13;10.17;;;;;;;;;;5054146;28;20434;-77
2022/01/07 11:44:12;;;;;;;10.83;8.77;;;;;;;;;;5053927;28;20524;-77
2022/01/07 11:46:39;;;;;;;12.33;9.43;;;;;;;;;;5053068;28;20523;-78
2022/01/07 11:49:06;;;;;;;13.80;11.33;;;;;;;;;;5052556;28;20442;-77
2022/01/07 11:51:38;;;;;;;15.50;11.10;;;;;;;;;;5049493;28;20454;-77
2022/01/07 11:54:13;;;;;;;11.23;9.40;;;;;;;;;;5052656;28;20514;-77
2022/01/07 11:56:40;;;;;;;10.90;9.80;;;;;;;;;;5052884;28;20516;-77
2022/01/07 11:59:20;;;;;;;12.13;10.20;;;;;;;;;;5052453;28;20444;-77
2022/01/07 12:01:57;;;;;;;10.53;8.83;;;;;;;;;;5053366;28;20438;-77
2022/01/07 12:04:27;;;;;;;12.43;10.20;;;;;;;;;;5053177;28;20473;-77
2022/01/07 12:06:55;;;;;;;13.63;9.83;;;;;;;;;;5052513;28;20461;-77
2022/01/07 12:09:28;;;;;;;10.73;8.60;;;;;;;;;;5052401;28;20494;-77
2022/01/07 12:11:58;;;;;;;12.57;9.83;;;;;;;;;;5052026;28;20533;-76
2022/01/07 12:14:27;;;;;;;12.40;9.37;;;;;;;;;;5050475;28;21005;-78
2022/01/07 12:16:55;;;;;;;10.60;8.90;;;;;;;;;;5045492;28;20471;-78
2022/01/07 12:19:50;;;;;;;12.00;8.83;;;;;;;;;;5052303;28;20503;-77
2022/01/07 12:22:17;;;;;;;12.77;9.20;;;;;;;;;;5032745;28;20495;-77
2022/01/07 12:24:45;;;;;;;10.00;8.03;;;;;;;;;;5033478;28;20467;-77
2022/01/07 12:27:13;;;;;;;13.90;8.80;;;;;;;;;;5033593;28;20820;-77
2022/01/07 12:29:42;;;;;;;12.30;8.80;;;;;;;;;;5033234;28;20483;-76
2022/01/07 12:32:11;;;;;;;9.67;7.70;;;;;;;;;;5032958;28;20554;-77
2022/01/07 12:34:40;;;;;;;10.13;8.70;;;;;;;;;;5032956;28;20543;-77
2022/01/07 12:37:08;;;;;;;8.00;7.20;;;;;;;;;;5032840;28;20463;-76
2022/01/07 12:39:36;;;;;;;9.70;8.07;;;;;;;;;;5033029;28;20452;-75
2022/01/07 12:42:03;;;;;;;10.20;9.20;;;;;;;;;;5032433;28;20450;-75
2022/01/07 12:44:34;;;;;;;8.43;7.53;;;;;;;;;;5032662;28;20504;-76
2022/01/07 12:47:03;;;;;;;9.23;8.33;;;;;;;;;;5032377;28;20520;-74
2022/01/07 12:49:34;;;;;;;13.57;9.20;;;;;;;;;;5031604;28;20436;-76
2022/01/07 12:52:02;;;;;;;9.37;8.00;;;;;;;;;;5032227;28;20523;-75
2022/01/07 12:54:29;;;;;;;13.13;7.87;;;;;;;;;;5032060;28;20443;-75
2022/01/07 12:56:56;;;;;;;9.40;7.80;;;;;;;;;;5032443;28;21036;-76
2022/01/07 12:59:25;;;;;;;9.73;7.27;;;;;;;;;;5047230;28;20548;-76
2022/01/07 13:01:53;;;;;;;10.70;8.10;;;;;;;;;;5052037;28;20480;-77
2022/01/07 13:04:22;;;;;;;15.67;10.00;;;;;;;;;;5052437;28;20516;-76
2022/01/07 13:06:50;;;;;;;6.80;6.20;;;;;;;;;;5053408;28;20454;-76
2022/01/07 13:09:20;;;;;;;7.90;7.00;;;;;;;;;;5053753;28;20849;-76
2022/01/07 13:11:49;;;;;;;8.00;7.30;;;;;;;;;;5054907;28;20877;-76
2022/01/07 13:14:17;;;;;;;7.53;6.70;;;;;;;;;;5056202;28;20443;-76
2022/01/07 13:16:44;;;;;;;8.20;7.40;;;;;;;;;;5056529;28;20467;-75
2022/01/07 13:19:11;;;;;;;6.97;6.27;;;;;;;;;;5056053;28;20492;-78
2022/01/07 13:21:42;;;;;;;12.43;7.30;;;;;;;;;;5051737;28;20903;-77
2022/01/07 13:24:09;;;;;;;8.80;6.27;;;;;;;;;;5036181;28;20432;-76
2022/01/07 13:26:38;;;;;;;9.40;6.40;;;;;;;;;;5035763;28;20475;-76
2022/01/07 13:29:23;;;;;;;7.33;6.63;;;;;;;;;;5035841;28;20498;-76
2022/01/07 13:31:57;;;;;;;6.33;5.73;;;;;;;;;;5036000;28;20502;-77
2022/01/07 13:34:24;;;;;;;6.20;5.33;;;;;;;;;;5036254;28;20462;-76
2022/01/07 13:36:53;;;;;;;6.37;5.77;;;;;;;;;;5036196;28;20467;-76
2022/01/07 13:39:21;;;;;;;6.63;6.03;;;;;;;;;;5035727;28;20443;-76
2022/01/07 13:41:59;;;;;;;6.37;5.83;;;;;;;;;;5035447;28;20964;-77
2022/01/07 13:44:27;;;;;;;6.87;5.90;;;;;;;;;;5035790;28;20927;-78
2022/01/07 13:46:56;;;;;;;5.83;5.23;;;;;;;;;;5035512;28;20482;-75
2022/01/07 13:49:24;;;;;;;7.90;5.93;;;;;;;;;;5035159;28;20533;-76
2022/01/07 13:51:55;;;;;;;6.73;4.60;;;;;;;;;;5035134;28;21158;-76
2022/01/07 13:54:25;;;;;;;6.20;5.70;;;;;;;;;;5049503;28;20442;-76
2022/01/07 13:56:57;;;;;;;6.27;5.67;;;;;;;;;;5054099;28;20565;-76
2022/01/07 13:59:25;;;;;;;6.10;4.97;;;;;;;;;;5053668;28;20448;-75
2022/01/07 14:01:56;;;;;;;4.47;4.07;;;;;;;;;;5053975;28;20449;-75
2022/01/07 14:04:38;;;;;;;6.07;5.53;;;;;;;;;;5046275;28;20496;-75
2022/01/07 14:07:20;;;;;;;7.50;5.53;;;;;;;;;;5044867;28;20466;-75
2022/01/07 14:10:02;;;;;;;5.87;5.33;;;;;;;;;;5050815;28;20501;-75
2022/01/07 14:12:29;;;;;;;5.33;4.70;;;;;;;;;;5054658;28;20430;-76
2022/01/07 14:15:03;;;;;;;5.67;5.17;;;;;;;;;;5055498;28;20849;-75
2022/01/07 14:17:31;;;;;;;5.63;4.60;;;;;;;;;;5055802;28;20462;-75
2022/01/07 14:19:59;;;;;;;5.80;4.70;;;;;;;;;;5055195;28;20483;-76
2022/01/07 14:22:26;;;;;;;5.10;4.60;;;;;;;;;;5054377;28;20451;-76
2022/01/07 14:24:53;;;;;;;5.90;5.30;;;;;;;;;;5044393;28;20453;-75
2022/01/07 14:27:33;;;;;;;8.60;5.50;;;;;;;;;;5054094;28;20524;-75
2022/01/07 14:30:00;;;;;;;5.17;4.57;;;;;;;;;;5054312;28;20795;-77
2022/01/07 14:32:28;;;;;;;5.47;4.97;;;;;;;;;;5039424;28;20440;-76
2022/01/07 14:34:57;;;;;;;5.63;5.03;;;;;;;;;;5033914;28;20452;-76
2022/01/07 14:37:26;;;;;;;4.97;4.43;;;;;;;;;;5034948;28;20881;-75
2022/01/07 14:39:53;;;;;;;5.50;4.77;;;;;;;;;;5034793;28;20460;-76
2022/01/07 14:42:20;;;;;;;4.60;3.90;;;;;;;;;;5049479;28;20535;-75